Time;durP1;ratioP1;P1;durP2;ratioP2;P2;SDS_P1;SDS_P2;PMS_P1;PMS_P2;Temp;Humidity;BMP_temperature;BMP_pressure;BME280_temperature;BME280_humidity;BME280_pressure;Samples;Min_cycle;Max_cycle;Signal;HPM_P1;HPM_P2
2024/01/23 00:03:12;;;;;;;13.52;2.63;;;;;;;5.78;nan;101064.22;10288374;28;20057;-69
2024/01/23 00:08:13;;;;;;;16.90;2.38;;;;;;;5.67;nan;101084.88;10294653;28;20066;-72
2024/01/23 00:13:13;;;;;;;12.93;2.67;;;;;;;5.64;nan;101079.81;10302421;28;20043;-72
2024/01/23 00:18:14;;;;;;;16.10;3.53;;;;;;;5.10;nan;100996.44;10301468;28;20035;-73
2024/01/23 00:23:14;;;;;;;11.27;2.72;;;;;;;5.52;nan;101097.94;10299755;28;20031;-72
2024/01/23 00:28:15;;;;;;;18.38;3.65;;;;;;;5.45;nan;101126.09;10306617;28;20046;-72
2024/01/23 00:33:15;;;;;;;18.08;3.40;;;;;;;5.42;nan;101114.78;10302979;28;20043;-73
2024/01/23 00:38:16;;;;;;;25.45;4.05;;;;;;;5.44;nan;101129.91;10299669;28;20047;-72
2024/01/23 00:43:16;;;;;;;20.67;3.50;;;;;;;5.37;nan;101155.53;10304127;28;20038;-73
2024/01/23 00:48:17;;;;;;;17.20;3.50;;;;;;;5.38;nan;101113.53;10307395;28;20051;-72
2024/01/23 00:53:17;;;;;;;15.38;2.33;;;;;;;5.46;nan;101144.19;10312446;28;20061;-72
2024/01/23 00:58:18;;;;;;;14.63;2.78;;;;;;;5.44;nan;101156.38;10318614;28;20089;-72
2024/01/23 01:03:18;;;;;;;21.48;3.35;;;;;;;5.41;nan;101156.78;10311015;28;20089;-72
2024/01/23 01:08:19;;;;;;;10.50;3.85;;;;;;;5.47;nan;101159.50;10309059;28;20047;-71
2024/01/23 01:13:19;;;;;;;22.50;2.58;;;;;;;5.47;nan;101167.69;10316439;28;20053;-72
2024/01/23 01:18:20;;;;;;;16.70;3.13;;;;;;;5.41;nan;101174.00;10325581;28;20101;-73
2024/01/23 01:23:20;;;;;;;18.60;4.07;;;;;;;5.37;nan;101161.00;10318841;28;20074;-85
2024/01/23 01:28:21;;;;;;;14.38;3.67;;;;;;;5.40;nan;101155.94;10275284;28;20042;-82
2024/01/23 01:33:21;;;;;;;17.90;3.10;;;;;;;5.40;nan;101176.97;10285193;28;20045;-83
2024/01/23 01:38:23;;;;;;;20.33;4.13;;;;;;;5.31;nan;101189.97;10321689;28;20077;-77
2024/01/23 01:43:30;;;;;;;16.98;3.92;;;;;;;5.31;nan;101179.06;10307853;28;20205;-83
2024/01/23 01:48:30;;;;;;;16.65;3.70;;;;;;;5.31;nan;101200.91;10320533;28;20041;-84
2024/01/23 01:53:31;;;;;;;17.15;3.17;;;;;;;5.12;nan;101196.31;10303111;28;20039;-84
2024/01/23 01:58:32;;;;;;;18.85;3.15;;;;;;;5.26;nan;101208.88;10301253;28;20065;-85
2024/01/23 02:03:32;;;;;;;26.67;6.75;;;;;;;5.16;nan;101233.88;10289600;28;20478;-82
2024/01/23 02:08:35;;;;;;;28.08;4.50;;;;;;;5.10;nan;101234.72;10283277;28;20042;-83
2024/01/23 02:13:35;;;;;;;14.82;4.57;;;;;;;5.08;nan;101235.97;10305169;28;20065;-83
2024/01/23 02:18:36;;;;;;;22.30;4.40;;;;;;;4.32;nan;101128.91;10317771;28;20059;-83
2024/01/23 02:23:36;;;;;;;19.75;3.08;;;;;;;5.07;nan;101239.78;10323407;28;20034;-83
2024/01/23 02:28:37;;;;;;;17.30;3.60;;;;;;;5.10;nan;101270.19;10314376;28;20094;-83
2024/01/23 02:33:37;;;;;;;19.45;4.05;;;;;;;5.05;nan;101281.75;10321288;28;20061;-75
2024/01/23 02:38:37;;;;;;;17.77;3.05;;;;;;;5.03;nan;101274.81;10304542;28;20046;-82
2024/01/23 02:43:38;;;;;;;19.35;3.22;;;;;;;5.13;nan;101290.78;10312564;28;20054;-82
2024/01/23 02:48:38;;;;;;;29.50;4.97;;;;;;;5.01;nan;101269.56;10280921;28;20046;-81
2024/01/23 02:53:39;;;;;;;24.27;5.07;;;;;;;5.05;nan;101276.28;10302753;28;20038;-82
2024/01/23 02:58:40;;;;;;;19.58;3.50;;;;;;;5.12;nan;101294.56;10296485;28;20046;-82
2024/01/23 03:03:41;;;;;;;19.23;4.28;;;;;;;5.16;nan;101295.81;10315773;28;20042;-85
2024/01/23 03:08:41;;;;;;;21.17;5.47;;;;;;;5.33;nan;101310.72;10316504;28;20042;-84
2024/01/23 03:13:42;;;;;;;24.60;5.22;;;;;;;5.38;nan;101302.78;10316078;28;20039;-83
2024/01/23 03:18:42;;;;;;;16.90;3.88;;;;;;;5.35;nan;101300.44;10320053;28;20061;-79
2024/01/23 03:23:43;;;;;;;21.33;3.78;;;;;;;5.56;nan;101339.53;10298713;28;20054;-84
2024/01/23 03:28:43;;;;;;;14.70;3.38;;;;;;;5.59;nan;101325.47;10298450;28;20034;-81
2024/01/23 03:33:46;;;;;;;17.63;3.90;;;;;;;5.64;nan;101336.59;10285644;28;20068;-84
2024/01/23 03:38:47;;;;;;;24.50;4.35;;;;;;;5.60;nan;101336.19;10312283;28;20039;-83
2024/01/23 03:43:47;;;;;;;23.42;3.67;;;;;;;5.41;nan;101305.06;10334974;28;20093;-82
2024/01/23 03:48:48;;;;;;;24.15;4.00;;;;;;;5.45;nan;101352.75;10309425;28;20045;-81
2024/01/23 03:53:48;;;;;;;18.63;3.80;;;;;;;5.41;nan;101365.13;10314080;28;20042;-81
2024/01/23 03:58:49;;;;;;;23.85;4.10;;;;;;;5.45;nan;101380.06;10310374;28;20158;-84
2024/01/23 04:03:49;;;;;;;15.10;4.07;;;;;;;5.36;nan;101392.25;10314379;28;20042;-82
2024/01/23 04:08:50;;;;;;;22.40;3.97;;;;;;;5.44;nan;101405.69;10283435;28;20038;-83
2024/01/23 04:13:50;;;;;;;26.98;6.13;;;;;;;5.51;nan;101432.19;10293080;28;20069;-82
2024/01/23 04:18:54;;;;;;;25.17;4.97;;;;;;;5.50;nan;101425.03;10292816;28;20502;-80
2024/01/23 04:23:55;;;;;;;23.58;3.85;;;;;;;5.70;nan;101445.00;10310040;28;20043;-79
2024/01/23 04:28:55;;;;;;;26.85;4.22;;;;;;;5.64;nan;101433.06;10298804;28;20043;-81
2024/01/23 04:33:56;;;;;;;22.05;3.55;;;;;;;5.81;nan;101451.78;10297208;28;20467;-81
2024/01/23 04:38:56;;;;;;;12.15;3.58;;;;;;;5.85;nan;101473.00;10313973;28;20066;-82
2024/01/23 04:43:57;;;;;;;18.85;4.85;;;;;;;5.87;nan;101475.53;10300483;28;20043;-80
2024/01/23 04:48:57;;;;;;;20.75;5.93;;;;;;;5.82;nan;101476.13;10312284;28;20061;-80
2024/01/23 04:53:58;;;;;;;22.38;4.47;;;;;;;5.96;nan;101512.56;10320538;28;20030;-83
2024/01/23 04:58:58;;;;;;;20.08;4.00;;;;;;;5.92;nan;101496.78;10307349;28;20097;-79
2024/01/23 05:03:59;;;;;;;18.98;3.83;;;;;;;6.06;nan;101531.31;10322326;28;20132;-82
2024/01/23 05:08:59;;;;;;;23.27;4.05;;;;;;;5.92;nan;101535.88;10318093;28;20043;-80
2024/01/23 05:14:01;;;;;;;31.88;6.13;;;;;;;5.93;nan;101547.63;10308447;28;20113;-81
2024/01/23 05:19:01;;;;;;;22.67;3.78;;;;;;;5.95;nan;101567.44;10289406;28;20046;-81
2024/01/23 05:24:02;;;;;;;29.17;6.50;;;;;;;6.00;nan;101590.38;10326026;28;20034;-81
2024/01/23 05:29:03;;;;;;;20.33;4.07;;;;;;;5.98;nan;101588.91;10289361;28;20049;-80
2024/01/23 05:34:03;;;;;;;23.17;5.20;;;;;;;6.00;nan;101601.31;10286232;28;20038;-83
2024/01/23 05:39:04;;;;;;;27.67;4.88;;;;;;;6.05;nan;101645.25;10321639;28;20069;-82
2024/01/23 05:44:04;;;;;;;31.30;4.57;;;;;;;6.06;nan;101646.94;10299060;28;20062;-81
2024/01/23 05:49:05;;;;;;;26.15;5.15;;;;;;;6.11;nan;101659.16;10286916;28;20038;-77
2024/01/23 05:54:06;;;;;;;24.83;4.25;;;;;;;6.05;nan;101649.88;10322981;28;20050;-81
2024/01/23 05:59:06;;;;;;;20.42;4.55;;;;;;;6.00;nan;101655.13;10303474;28;20047;-80
2024/01/23 06:04:08;;;;;;;25.05;5.68;;;;;;;6.13;nan;101684.41;10318171;28;20046;-79
2024/01/23 06:09:10;;;;;;;26.55;5.47;;;;;;;6.12;nan;101699.97;10279703;28;20038;-84
2024/01/23 06:14:10;;;;;;;28.88;6.80;;;;;;;5.99;nan;101694.44;10298678;28;20062;-80
2024/01/23 06:19:11;;;;;;;33.53;5.50;;;;;;;6.06;nan;101712.56;10321753;28;20046;-80
2024/01/23 06:24:11;;;;;;;28.42;5.38;;;;;;;5.99;nan;101738.16;10282725;28;20395;-82
2024/01/23 06:29:12;;;;;;;31.00;4.65;;;;;;;5.91;nan;101735.56;10303050;28;20117;-82
2024/01/23 06:34:12;;;;;;;34.65;5.45;;;;;;;5.86;nan;101749.84;10314100;28;20043;-82
2024/01/23 06:39:13;;;;;;;31.15;6.22;;;;;;;5.69;nan;101759.44;10321830;28;20045;-84
2024/01/23 06:44:13;;;;;;;30.48;5.45;;;;;;;5.66;nan;101783.38;10298826;28;20043;-75
2024/01/23 06:49:14;;;;;;;32.42;5.32;;;;;;;5.49;nan;101787.44;10306031;28;20513;-81
2024/01/23 06:54:14;;;;;;;39.10;7.57;;;;;;;5.36;nan;101810.00;10299137;28;20501;-82
2024/01/23 06:59:18;;;;;;;25.35;5.22;;;;;;;5.25;nan;101818.75;10318726;28;20524;-81
2024/01/23 07:04:18;;;;;;;36.30;7.95;;;;;;;5.19;nan;101823.09;10317092;28;20035;-80
2024/01/23 07:09:19;;;;;;;30.55;6.18;;;;;;;4.90;nan;101774.94;10317481;28;20505;-81
2024/01/23 07:14:19;;;;;;;28.02;5.05;;;;;;;5.10;nan;101837.91;10301745;28;20510;-82
2024/01/23 07:19:20;;;;;;;35.70;5.70;;;;;;;4.95;nan;101823.47;10317622;28;20501;-81
2024/01/23 07:24:20;;;;;;;29.73;5.88;;;;;;;5.03;nan;101843.31;10313331;28;20046;-82
2024/01/23 07:29:22;;;;;;;29.10;5.68;;;;;;;4.98;nan;101850.38;10303251;28;20050;-85
2024/01/23 07:34:22;;;;;;;29.27;6.00;;;;;;;4.90;nan;101862.28;10286638;28;20259;-83
2024/01/23 07:39:23;;;;;;;32.97;5.78;;;;;;;4.95;nan;101888.97;10317374;28;20162;-84
2024/01/23 07:44:23;;;;;;;39.13;5.05;;;;;;;4.89;nan;101896.03;10311329;28;20129;-78
2024/01/23 07:49:24;;;;;;;31.48;5.78;;;;;;;4.81;nan;101907.06;10306861;28;20086;-82
2024/01/23 07:54:24;;;;;;;33.25;6.30;;;;;;;4.79;nan;101939.16;10316167;28;20414;-82
2024/01/23 07:59:25;;;;;;;40.72;5.10;;;;;;;4.77;nan;101946.69;10296099;28;20050;-81
2024/01/23 08:04:25;;;;;;;49.40;7.75;;;;;;;4.81;nan;101948.00;10306887;28;20066;-83
2024/01/23 08:09:26;;;;;;;28.35;6.93;;;;;;;4.70;nan;101959.41;10310801;28;20037;-83
2024/01/23 08:14:26;;;;;;;30.17;6.47;;;;;;;4.68;nan;101970.47;10303321;28;20046;-85
2024/01/23 08:19:27;;;;;;;28.73;6.10;;;;;;;4.77;nan;101985.72;10296518;28;20066;-84
2024/01/23 08:24:29;;;;;;;37.83;5.60;;;;;;;4.80;nan;102001.72;10288821;28;20110;-83
2024/01/23 08:29:29;;;;;;;41.70;8.90;;;;;;;4.80;nan;102007.16;10290129;28;20043;-83
2024/01/23 08:34:30;;;;;;;32.00;6.93;;;;;;;4.83;nan;102030.50;10272326;28;20471;-75
2024/01/23 08:39:30;;;;;;;32.30;6.47;;;;;;;4.77;nan;102013.00;10303286;28;20043;-82
2024/01/23 08:44:31;;;;;;;33.15;6.85;;;;;;;4.86;nan;102041.06;10295034;28;20094;-82
2024/01/23 08:49:31;;;;;;;40.90;9.45;;;;;;;4.87;nan;102040.00;10294454;28;20035;-83
2024/01/23 08:54:33;;;;;;;51.80;9.20;;;;;;;4.85;nan;102028.44;10315822;28;20049;-83
2024/01/23 08:59:37;;;;;;;37.15;6.90;;;;;;;4.94;nan;102046.41;10296937;28;20045;-82
2024/01/23 09:04:37;;;;;;;30.27;7.93;;;;;;;4.94;nan;102024.59;10312171;28;20038;-82
2024/01/23 09:09:38;;;;;;;43.78;7.22;;;;;;;5.05;nan;102032.28;10306304;28;20038;-83
2024/01/23 09:14:38;;;;;;;33.53;6.22;;;;;;;5.04;nan;102025.16;10307375;28;20414;-84
2024/01/23 09:19:39;;;;;;;45.13;7.68;;;;;;;5.13;nan;102033.25;10316044;28;20035;-83
2024/01/23 09:24:40;;;;;;;34.75;6.93;;;;;;;5.18;nan;102036.22;10297620;28;20094;-83
2024/01/23 09:29:43;;;;;;;35.33;6.00;;;;;;;5.27;nan;102029.63;10317008;28;20042;-83
2024/01/23 09:34:45;;;;;;;39.38;6.60;;;;;;;5.31;nan;102044.56;10294461;28;20090;-83
2024/01/23 09:39:45;;;;;;;45.65;7.82;;;;;;;5.35;nan;102056.81;10295238;28;20042;-83
2024/01/23 09:44:46;;;;;;;33.08;6.78;;;;;;;5.38;nan;102055.59;10260415;28;20043;-83
2024/01/23 09:49:46;;;;;;;26.85;5.93;;;;;;;5.44;nan;102085.72;10285244;28;20043;-84
2024/01/23 09:54:47;;;;;;;38.17;6.38;;;;;;;5.40;nan;102084.41;10280530;28;20035;-84
2024/01/23 09:59:48;;;;;;;33.10;6.85;;;;;;;5.39;nan;102060.00;10299200;28;20118;-84
2024/01/23 10:04:49;;;;;;;35.28;8.13;;;;;;;5.67;nan;102106.59;10289969;28;20098;-79
2024/01/23 10:09:49;;;;;;;43.92;7.22;;;;;;;5.83;nan;102100.91;10315050;28;20062;-85
2024/01/23 10:14:50;;;;;;;28.23;6.50;;;;;;;5.90;nan;102090.03;10297996;28;20066;-84
2024/01/23 10:19:51;;;;;;;28.80;5.65;;;;;;;5.91;nan;102091.72;10305621;28;20415;-82
2024/01/23 10:24:51;;;;;;;32.83;6.38;;;;;;;6.07;nan;102101.59;10290259;28;20035;-84
2024/01/23 10:29:52;;;;;;;24.25;5.47;;;;;;;6.20;nan;102098.16;10301148;28;20042;-84
2024/01/23 10:34:53;;;;;;;27.65;5.72;;;;;;;6.15;nan;102093.28;10294424;28;20054;-82
2024/01/23 10:39:54;;;;;;;33.33;5.85;;;;;;;6.31;nan;102103.13;10289804;28;20044;-82
2024/01/23 10:44:54;;;;;;;27.48;5.00;;;;;;;6.47;nan;102102.84;10305647;28;20037;-85
2024/01/23 10:49:55;;;;;;;33.83;6.93;;;;;;;6.58;nan;102082.31;10292240;28;20039;-86
2024/01/23 10:54:56;;;;;;;24.75;5.35;;;;;;;6.70;nan;102076.28;10280211;28;20059;-83
2024/01/23 10:59:56;;;;;;;33.58;6.38;;;;;;;6.95;nan;102099.44;10276623;28;20669;-85
2024/01/23 11:04:58;;;;;;;38.35;7.75;;;;;;;7.04;nan;102098.22;10303822;28;20034;-80
2024/01/23 11:10:20;;;;;;;33.95;7.25;;;;;;;7.29;nan;102095.00;10266258;28;20077;-82
2024/01/23 11:15:21;;;;;;;30.10;6.47;;;;;;;7.21;nan;102086.94;10289865;28;20048;-82
2024/01/23 11:20:21;;;;;;;26.95;4.60;;;;;;;7.06;nan;102087.91;10273683;28;20070;-81
2024/01/23 11:25:22;;;;;;;27.77;5.60;;;;;;;6.99;nan;102094.41;10303141;28;20083;-83
2024/01/23 11:30:23;;;;;;;30.27;4.93;;;;;;;6.97;nan;102091.03;10280157;28;20047;-82
2024/01/23 11:35:23;;;;;;;22.55;4.22;;;;;;;7.02;nan;102083.88;10242401;28;20066;-83
2024/01/23 11:40:27;;;;;;;38.47;6.57;;;;;;;7.07;nan;102086.88;10267074;28;20050;-82
2024/01/23 11:45:28;;;;;;;27.63;5.90;;;;;;;7.10;nan;102079.31;10301452;28;20047;-82
2024/01/23 11:50:32;;;;;;;47.25;6.32;;;;;;;7.42;nan;102088.72;10298814;28;20058;-83
2024/01/23 11:55:33;;;;;;;26.20;4.63;;;;;;;7.37;nan;102072.91;10311188;28;20077;-82
2024/01/23 12:00:33;;;;;;;26.50;5.00;;;;;;;7.41;nan;102076.94;10305428;28;20054;-82
2024/01/23 12:05:36;;;;;;;30.90;6.95;;;;;;;7.32;nan;102056.25;10298871;28;20031;-82
2024/01/23 12:10:36;;;;;;;25.08;5.20;;;;;;;7.28;nan;102030.31;10309648;28;20085;-81
2024/01/23 12:15:37;;;;;;;27.15;5.53;;;;;;;6.99;nan;102040.47;10290454;28;20086;-82
2024/01/23 12:20:40;;;;;;;34.30;5.82;;;;;;;6.66;nan;102011.00;10319651;28;20042;-82
2024/01/23 12:25:41;;;;;;;29.25;5.15;;;;;;;6.98;nan;102043.41;10296356;28;20065;-80
2024/01/23 12:30:45;;;;;;;24.15;5.50;;;;;;;7.28;nan;102050.31;10297070;28;20054;-81
2024/01/23 12:35:47;;;;;;;25.05;5.10;;;;;;;7.22;nan;102039.34;10308395;28;20054;-81
2024/01/23 12:40:47;;;;;;;29.08;5.07;;;;;;;7.45;nan;102031.63;10287264;28;20077;-83
2024/01/23 12:45:51;;;;;;;32.67;4.80;;;;;;;7.56;nan;102023.88;10302793;28;20177;-83
2024/01/23 12:50:55;;;;;;;23.40;3.90;;;;;;;7.77;nan;102029.22;10295463;28;20038;-82
2024/01/23 12:55:55;;;;;;;23.33;4.30;;;;;;;7.82;nan;102009.38;10309135;28;20043;-81
2024/01/23 13:00:56;;;;;;;18.13;3.58;;;;;;;8.06;nan;102010.66;10289140;28;20039;-81
2024/01/23 13:05:56;;;;;;;28.85;4.90;;;;;;;7.92;nan;102019.94;10307503;28;20066;-81
2024/01/23 13:10:57;;;;;;;28.23;5.40;;;;;;;7.71;nan;102023.69;10318499;28;20177;-85
2024/01/23 13:15:58;;;;;;;30.30;5.82;;;;;;;7.45;nan;102014.34;10295015;28;20073;-84
2024/01/23 13:20:58;;;;;;;31.52;6.22;;;;;;;7.42;nan;102006.53;10307588;28;20058;-84
2024/01/23 13:25:59;;;;;;;25.48;5.15;;;;;;;7.24;nan;101998.91;10315098;28;20031;-83
2024/01/23 13:31:04;;;;;;;28.42;7.28;;;;;;;7.02;nan;101984.47;10318370;28;20062;-84
2024/01/23 13:36:07;;;;;;;21.25;4.43;;;;;;;7.03;nan;101994.38;10322726;28;20038;-85
2024/01/23 13:41:08;;;;;;;29.85;6.85;;;;;;;6.93;nan;101981.06;10302304;28;20329;-87
2024/01/23 13:46:08;;;;;;;23.35;5.05;;;;;;;6.86;nan;101969.22;10309723;28;20066;-84
2024/01/23 13:51:09;;;;;;;21.67;4.10;;;;;;;6.90;nan;101975.97;10303774;28;20441;-82
2024/01/23 13:56:10;;;;;;;20.98;4.03;;;;;;;6.96;nan;101977.06;10318570;28;20106;-84
2024/01/23 14:01:10;;;;;;;25.65;5.70;;;;;;;6.91;nan;101957.69;10296140;28;20038;-86
2024/01/23 14:06:11;;;;;;;21.10;4.82;;;;;;;6.99;nan;101963.81;10321107;28;20477;-83
2024/01/23 14:11:13;;;;;;;25.08;5.45;;;;;;;6.95;nan;101951.59;10300939;28;20337;-82
2024/01/23 14:16:14;;;;;;;25.35;5.22;;;;;;;6.82;nan;101935.09;10288311;28;20046;-83
2024/01/23 14:21:14;;;;;;;24.63;3.65;;;;;;;6.81;nan;101944.34;10307186;28;20130;-80
2024/01/23 14:26:15;;;;;;;23.08;4.88;;;;;;;6.81;nan;101936.16;10320119;28;20046;-81
2024/01/23 14:31:15;;;;;;;26.67;6.35;;;;;;;6.76;nan;101933.16;10313291;28;20074;-83
2024/01/23 14:36:16;;;;;;;16.02;3.22;;;;;;;6.79;nan;101940.97;10314774;28;20172;-82
2024/01/23 14:41:16;;;;;;;26.48;4.82;;;;;;;6.78;nan;101911.91;10288507;28;20042;-83
2024/01/23 14:46:17;;;;;;;21.80;4.45;;;;;;;6.78;nan;101896.34;10314205;28;20633;-78
2024/01/23 14:51:17;;;;;;;20.63;4.93;;;;;;;6.72;nan;101886.22;10286567;28;20046;-82
2024/01/23 14:56:17;;;;;;;21.20;4.63;;;;;;;6.76;nan;101886.63;10286437;28;20061;-85
2024/01/23 15:01:18;;;;;;;19.00;4.18;;;;;;;6.60;nan;101855.84;10281242;28;20049;-82
2024/01/23 15:06:18;;;;;;;33.08;5.07;;;;;;;6.70;nan;101876.50;10316864;28;20093;-82
2024/01/23 15:11:19;;;;;;;21.20;3.70;;;;;;;6.58;nan;101851.63;10304772;28;20046;-82
2024/01/23 15:16:19;;;;;;;18.52;4.72;;;;;;;6.52;nan;101847.81;10318162;28;20049;-82
2024/01/23 15:21:20;;;;;;;22.27;4.32;;;;;;;6.49;nan;101826.34;10277572;28;20537;-82
2024/01/23 15:26:20;;;;;;;20.13;3.75;;;;;;;6.38;nan;101802.28;10283659;28;20543;-82
2024/01/23 15:31:21;;;;;;;24.38;3.70;;;;;;;6.33;nan;101800.19;10295764;28;20057;-82
2024/01/23 15:36:22;;;;;;;19.33;4.60;;;;;;;6.29;nan;101784.38;10295451;28;20049;-81
2024/01/23 15:41:22;;;;;;;30.08;5.88;;;;;;;6.33;nan;101769.25;10290993;28;20047;-83
2024/01/23 15:46:22;;;;;;;18.88;4.38;;;;;;;6.31;nan;101746.75;10299244;28;20046;-80
2024/01/23 15:51:24;;;;;;;15.82;3.80;;;;;;;6.38;nan;101736.66;10299674;28;20111;-83
2024/01/23 15:56:25;;;;;;;18.70;4.93;;;;;;;6.26;nan;101712.66;10303258;28;20047;-83
2024/01/23 16:01:25;;;;;;;21.20;3.72;;;;;;;6.32;nan;101713.69;10296094;28;20050;-82
2024/01/23 16:06:26;;;;;;;17.70;5.03;;;;;;;6.29;nan;101708.66;10286744;28;20038;-83
2024/01/23 16:11:26;;;;;;;22.17;5.65;;;;;;;6.32;nan;101718.31;10300921;28;20057;-82
2024/01/23 16:16:27;;;;;;;22.70;5.57;;;;;;;6.24;nan;101711.13;10282688;28;20046;-81
2024/01/23 16:21:27;;;;;;;19.77;4.43;;;;;;;6.18;nan;101712.81;10261488;28;20065;-84
2024/01/23 16:26:28;;;;;;;15.30;3.97;;;;;;;6.05;nan;101689.00;10286009;28;20499;-84
2024/01/23 16:31:28;;;;;;;22.85;5.38;;;;;;;6.02;nan;101688.56;10303783;28;20057;-75
2024/01/23 16:36:29;;;;;;;19.55;6.30;;;;;;;5.90;nan;101669.16;10289166;28;20031;-84
2024/01/23 16:41:29;;;;;;;22.70;4.78;;;;;;;5.81;nan;101652.09;10285685;28;20050;-86
2024/01/23 16:46:30;;;;;;;22.98;4.53;;;;;;;5.89;nan;101658.41;10302022;28;20035;-87
2024/01/23 16:51:30;;;;;;;23.70;4.47;;;;;;;5.80;nan;101633.16;10317489;28;20034;-87
2024/01/23 16:56:31;;;;;;;19.95;4.22;;;;;;;5.78;nan;101619.69;10322148;28;20043;-85
2024/01/23 17:01:31;;;;;;;20.10;4.90;;;;;;;5.80;nan;101598.47;10321219;28;20039;-87
2024/01/23 17:06:31;;;;;;;30.15;5.00;;;;;;;5.68;nan;101577.41;10335387;28;20297;-87
2024/01/23 17:11:32;;;;;;;27.80;6.93;;;;;;;5.87;nan;101568.44;10309011;28;20038;-85
2024/01/23 17:16:32;;;;;;;36.03;7.43;;;;;;;5.86;nan;101553.94;10316440;28;20082;-75
2024/01/23 17:21:33;;;;;;;32.65;8.50;;;;;;;5.88;nan;101540.06;10328638;28;20034;-81
2024/01/23 17:26:33;;;;;;;38.13;7.65;;;;;;;5.89;nan;101540.91;10307713;28;20034;-82
2024/01/23 17:31:34;;;;;;;26.80;6.30;;;;;;;5.84;nan;101506.00;10343219;28;20426;-83
2024/01/23 17:36:34;;;;;;;33.83;7.72;;;;;;;5.88;nan;101484.56;10336961;28;20402;-84
2024/01/23 17:41:35;;;;;;;38.13;7.38;;;;;;;5.91;nan;101476.78;10304848;28;20035;-75
2024/01/23 17:46:35;;;;;;;20.98;7.32;;;;;;;5.97;nan;101466.94;10310297;28;20042;-83
2024/01/23 17:51:36;;;;;;;28.17;9.38;;;;;;;6.00;nan;101420.06;10303987;28;20045;-84
2024/01/23 17:56:39;;;;;;;26.98;7.10;;;;;;;5.97;nan;101398.63;10304053;28;20097;-84
2024/01/23 18:01:40;;;;;;;30.08;6.65;;;;;;;6.12;nan;101391.03;10297214;28;20499;-83
2024/01/23 18:06:40;;;;;;;20.52;7.93;;;;;;;6.12;nan;101387.44;10290691;28;20038;-83
2024/01/23 18:11:41;;;;;;;29.33;8.07;;;;;;;6.20;nan;101371.69;10326183;28;20089;-83
2024/01/23 18:16:41;;;;;;;26.75;8.82;;;;;;;6.19;nan;101367.25;10311890;28;20034;-83
2024/01/23 18:21:42;;;;;;;21.48;6.90;;;;;;;6.20;nan;101352.56;10318969;28;20074;-80
2024/01/23 18:26:42;;;;;;;29.33;7.10;;;;;;;6.30;nan;101332.09;10313073;28;20050;-81
2024/01/23 18:31:43;;;;;;;15.20;6.35;;;;;;;6.13;nan;101298.94;10324839;28;20070;-87
2024/01/23 18:36:44;;;;;;;17.67;7.45;;;;;;;6.21;nan;101305.00;10306277;28;20124;-87
2024/01/23 18:41:45;;;;;;;15.82;7.25;;;;;;;6.21;nan;101283.13;10318508;28;20034;-81
2024/01/23 18:46:45;;;;;;;18.15;8.13;;;;;;;6.13;nan;101253.28;10303557;28;20049;-77
2024/01/23 18:51:47;;;;;;;15.02;8.45;;;;;;;6.14;nan;101218.59;10316828;28;20106;-91
2024/01/23 18:56:50;;;;;;;11.95;7.68;;;;;;;6.25;nan;101220.66;10296655;28;20050;-84
2024/01/23 19:01:51;;;;;;;22.15;8.98;;;;;;;6.29;nan;101199.19;10293316;28;20045;-89
2024/01/23 19:06:51;;;;;;;16.25;9.85;;;;;;;6.31;nan;101205.28;10295663;28;20050;-85
2024/01/23 19:11:52;;;;;;;16.40;9.55;;;;;;;6.24;nan;101150.63;10314199;28;20295;-84
2024/01/23 19:16:52;;;;;;;19.48;10.25;;;;;;;6.32;nan;101165.94;10311743;28;20058;-83
2024/01/23 19:21:53;;;;;;;17.13;10.98;;;;;;;6.24;nan;101140.53;10319232;28;20034;-84
2024/01/23 19:26:53;;;;;;;21.70;12.10;;;;;;;6.29;nan;101130.84;10324041;28;20042;-89
2024/01/23 19:31:54;;;;;;;18.13;11.60;;;;;;;6.32;nan;101109.34;10304615;28;20050;-83
2024/01/23 19:36:54;;;;;;;17.98;10.52;;;;;;;6.46;nan;101115.56;10313079;28;20501;-88
2024/01/23 19:41:55;;;;;;;15.32;10.25;;;;;;;6.57;nan;101112.09;10307297;28;20082;-84
2024/01/23 19:46:57;;;;;;;14.15;10.85;;;;;;;6.73;nan;101077.06;10317261;28;20042;-84
2024/01/23 19:51:57;;;;;;;15.68;11.23;;;;;;;6.76;nan;101057.44;10313797;28;20042;-80
2024/01/23 19:56:58;;;;;;;14.73;9.95;;;;;;;6.72;nan;101045.28;10314116;28;20054;-85
2024/01/23 20:02:00;;;;;;;11.80;9.52;;;;;;;6.77;nan;101018.91;10309658;28;20034;-82
2024/01/23 20:07:01;;;;;;;12.38;10.75;;;;;;;6.87;nan;101012.94;10301168;28;20049;-83
2024/01/23 20:12:01;;;;;;;16.42;12.32;;;;;;;6.93;nan;101022.97;10316621;28;20407;-85
2024/01/23 20:17:03;;;;;;;14.43;11.60;;;;;;;6.85;nan;100993.16;10313307;28;20042;-82
2024/01/23 20:22:03;;;;;;;16.17;11.57;;;;;;;6.83;nan;100962.44;10292471;28;20046;-81
2024/01/23 20:27:04;;;;;;;18.58;13.35;;;;;;;7.07;nan;100977.97;10294734;28;20487;-83
2024/01/23 20:32:05;;;;;;;14.18;12.75;;;;;;;7.12;nan;100980.00;10298934;28;20046;-84
2024/01/23 20:37:06;;;;;;;16.77;13.32;;;;;;;7.25;nan;100976.28;10313710;28;20043;-85
2024/01/23 20:42:11;;;;;;;18.88;13.80;;;;;;;7.32;nan;100966.09;10311904;28;20061;-84
2024/01/23 20:47:13;;;;;;;19.30;15.20;;;;;;;7.36;nan;100934.44;10318857;28;20043;-84
2024/01/23 20:52:14;;;;;;;16.35;14.82;;;;;;;7.43;nan;100928.84;10314501;28;20042;-84
2024/01/23 20:57:14;;;;;;;16.85;15.10;;;;;;;7.45;nan;100905.63;10314396;28;20038;-80
2024/01/23 21:02:15;;;;;;;16.65;14.80;;;;;;;7.53;nan;100898.16;10312090;28;20043;-79
2024/01/23 21:07:15;;;;;;;16.15;14.05;;;;;;;7.62;nan;100891.28;10311674;28;20038;-80
2024/01/23 21:12:16;;;;;;;17.70;15.00;;;;;;;7.66;nan;100871.38;10308352;28;20065;-77
2024/01/23 21:17:16;;;;;;;17.73;15.48;;;;;;;7.77;nan;100857.94;10307654;28;20049;-80
2024/01/23 21:22:17;;;;;;;20.70;17.15;;;;;;;7.91;nan;100856.63;10309649;28;20085;-78
2024/01/23 21:27:18;;;;;;;19.08;17.08;;;;;;;8.01;nan;100826.72;10318627;28;20043;-79
2024/01/23 21:32:18;;;;;;;18.63;16.67;;;;;;;8.16;nan;100834.47;10316098;28;20042;-81
2024/01/23 21:37:18;;;;;;;20.70;18.45;;;;;;;8.15;nan;100805.38;10314504;28;20103;-79
2024/01/23 21:42:19;;;;;;;20.00;17.88;;;;;;;8.33;nan;100814.53;10317923;28;20034;-80
2024/01/23 21:47:20;;;;;;;20.50;18.45;;;;;;;8.44;nan;100797.28;10317777;28;20065;-80
2024/01/23 21:52:20;;;;;;;19.75;17.92;;;;;;;8.50;nan;100773.53;10315846;28;20054;-85
2024/01/23 21:57:21;;;;;;;20.38;17.58;;;;;;;8.70;nan;100773.91;10315603;28;20046;-77
2024/01/23 22:02:21;;;;;;;17.77;16.02;;;;;;;8.85;nan;100800.84;10320644;28;20520;-80
2024/01/23 22:07:22;;;;;;;19.27;17.33;;;;;;;9.02;nan;100762.44;10321322;28;20049;-74
2024/01/23 22:12:22;;;;;;;19.13;17.42;;;;;;;9.15;nan;100764.03;10323022;28;21054;-80
2024/01/23 22:17:23;;;;;;;19.40;17.70;;;;;;;9.12;nan;100710.44;10320337;28;20708;-82
2024/01/23 22:22:23;;;;;;;19.52;17.52;;;;;;;9.36;nan;100735.81;10302516;28;20054;-79
2024/01/23 22:27:24;;;;;;;27.15;21.35;;;;;;;9.44;nan;100724.41;10319308;28;20038;-80
2024/01/23 22:32:25;;;;;;;23.45;19.85;;;;;;;9.49;nan;100721.78;10319344;28;20042;-81
2024/01/23 22:37:26;;;;;;;24.52;21.98;;;;;;;9.64;nan;100734.91;10289003;28;20049;-79
2024/01/23 22:42:26;;;;;;;24.85;22.30;;;;;;;9.66;nan;100727.25;10317088;28;20046;-81
2024/01/23 22:47:27;;;;;;;26.00;21.70;;;;;;;9.82;nan;100720.06;10303399;28;20038;-81
2024/01/23 22:52:30;;;;;;;25.65;22.90;;;;;;;9.86;nan;100715.72;10313369;28;20035;-83
2024/01/23 22:57:30;;;;;;;28.85;22.67;;;;;;;9.94;nan;100688.84;10317064;28;20782;-79
2024/01/23 23:02:30;;;;;;;25.40;22.67;;;;;;;9.98;nan;100684.50;10317518;28;20093;-80
2024/01/23 23:07:31;;;;;;;25.52;22.98;;;;;;;9.93;nan;100673.47;10319521;28;20034;-86
2024/01/23 23:12:35;;;;;;;28.33;23.80;;;;;;;10.08;nan;100654.38;10310544;28;20049;-84
2024/01/23 23:17:35;;;;;;;26.27;23.35;;;;;;;10.13;nan;100664.63;10333497;28;20066;-87
2024/01/23 23:22:36;;;;;;;25.30;21.45;;;;;;;10.15;nan;100665.19;10335247;28;20035;-81
2024/01/23 23:27:37;;;;;;;23.88;21.58;;;;;;;10.23;nan;100654.59;10323386;28;20046;-80
2024/01/23 23:32:37;;;;;;;24.45;22.13;;;;;;;10.22;nan;100652.91;10319234;28;20030;-81